Time;durP1;ratioP1;P1;durP2;ratioP2;P2;SDS_P1;SDS_P2;PMS_P1;PMS_P2;Temp;Humidity;BMP_temperature;BMP_pressure;BME280_temperature;BME280_humidity;BME280_pressure;Samples;Min_cycle;Max_cycle;Signal;HPM_P1;HPM_P2
2021/12/19 00:00:54;;;;;;;33.63;16.33;;;;;;;0.04;100.00;96705.88;4979793;28;20221;-59
2021/12/19 00:03:37;;;;;;;31.57;15.80;;;;;;;0.04;100.00;96711.25;4979473;28;20649;-59
2021/12/19 00:11:12;;;;;;;29.23;14.70;;;;;;;-0.04;100.00;96722.72;4996423;28;20186;-53
2021/12/19 00:13:40;;;;;;;30.33;15.30;;;;;;;-0.01;100.00;96726.69;4979353;28;20216;-60
2021/12/19 00:16:05;;;;;;;28.80;14.60;;;;;;;0.07;100.00;96723.28;4979095;28;20253;-59
2021/12/19 00:18:30;;;;;;;29.03;14.93;;;;;;;0.10;100.00;96725.34;4979119;28;20287;-59
2021/12/19 00:20:56;;;;;;;29.03;15.00;;;;;;;0.10;100.00;96730.72;4978771;28;20555;-60
2021/12/19 00:23:21;;;;;;;32.77;15.93;;;;;;;0.07;100.00;96728.66;4979308;28;20211;-60
2021/12/19 00:25:47;;;;;;;29.03;14.07;;;;;;;0.07;100.00;96719.81;4978870;28;20192;-59
2021/12/19 00:28:12;;;;;;;32.03;15.70;;;;;;;0.00;100.00;96714.88;4978958;28;20193;-60
2021/12/19 00:30:37;;;;;;;30.60;14.40;;;;;;;0.07;100.00;96717.91;4978798;28;20225;-55
2021/12/19 00:33:03;;;;;;;26.93;14.37;;;;;;;0.06;100.00;96713.66;4978619;28;20204;-54
2021/12/19 00:35:28;;;;;;;28.10;14.57;;;;;;;0.03;100.00;96708.88;4979022;28;20643;-54
2021/12/19 00:37:54;;;;;;;26.33;13.83;;;;;;;0.06;100.00;96702.91;4979113;28;20188;-55
2021/12/19 00:40:20;;;;;;;26.73;14.10;;;;;;;0.07;100.00;96706.41;4978617;28;20200;-55
2021/12/19 00:43:02;;;;;;;30.50;14.80;;;;;;;0.06;100.00;96708.28;4978573;28;20203;-55
2021/12/19 00:45:31;;;;;;;30.33;14.70;;;;;;;0.09;100.00;96696.94;4978545;28;20197;-54
2021/12/19 00:47:58;;;;;;;33.93;15.53;;;;;;;0.12;100.00;96687.47;4978972;28;20284;-59
2021/12/19 00:50:25;;;;;;;31.13;15.27;;;;;;;0.08;100.00;96683.81;4978535;28;20189;-73
2021/12/19 00:52:50;;;;;;;28.93;13.60;;;;;;;0.07;100.00;96688.38;4978277;28;20217;-72
2021/12/19 00:55:17;;;;;;;30.00;14.27;;;;;;;0.02;100.00;96699.25;4978515;28;20247;-72
2021/12/19 00:57:43;;;;;;;28.97;14.07;;;;;;;0.03;100.00;96708.88;4978642;28;20263;-73
2021/12/19 01:00:11;;;;;;;31.10;13.80;;;;;;;0.02;100.00;96704.63;4978234;28;20585;-73
2021/12/19 01:02:36;;;;;;;31.47;14.30;;;;;;;-0.03;100.00;96689.41;4978497;28;20623;-72
2021/12/19 01:05:04;;;;;;;31.83;15.10;;;;;;;-0.01;100.00;96689.13;4978323;28;20195;-73
2021/12/19 01:07:30;;;;;;;30.27;14.33;;;;;;;-0.04;100.00;96689.72;4978525;28;20587;-59
2021/12/19 01:09:55;;;;;;;30.40;14.77;;;;;;;0.02;100.00;96696.56;4977985;28;20413;-54
2021/12/19 01:12:21;;;;;;;28.13;14.03;;;;;;;0.01;100.00;96692.28;4978149;28;20282;-53
2021/12/19 01:14:46;;;;;;;30.10;13.93;;;;;;;-0.03;100.00;96700.16;4978037;28;20184;-50
2021/12/19 01:17:11;;;;;;;30.90;15.70;;;;;;;-0.02;100.00;96695.59;4978519;28;20221;-54
2021/12/19 01:19:37;;;;;;;33.83;14.23;;;;;;;-0.04;100.00;96674.41;4978149;28;20196;-53
2021/12/19 01:22:04;;;;;;;28.77;13.97;;;;;;;-0.02;100.00;96679.47;4978014;28;20290;-52
2021/12/19 01:24:30;;;;;;;28.13;13.90;;;;;;;-0.01;100.00;96681.06;4978043;28;20196;-62
2021/12/19 01:26:55;;;;;;;29.37;13.17;;;;;;;-0.01;100.00;96678.38;4978243;28;20200;-50
2021/12/19 01:29:21;;;;;;;31.20;14.67;;;;;;;-0.02;100.00;96684.84;4978068;28;20197;-54
2021/12/19 01:31:46;;;;;;;26.73;13.53;;;;;;;0.00;100.00;96680.75;4978084;28;20205;-49
2021/12/19 01:34:12;;;;;;;32.23;13.90;;;;;;;0.03;100.00;96681.25;4995056;28;20183;-53
2021/12/19 01:36:40;;;;;;;34.47;14.43;;;;;;;0.00;100.00;96671.94;4978343;28;20189;-51
2021/12/19 01:39:05;;;;;;;30.60;13.03;;;;;;;-0.01;100.00;96670.31;4977780;28;20185;-52
2021/12/19 01:41:31;;;;;;;32.03;14.63;;;;;;;-0.05;100.00;96669.34;4977917;28;20550;-53
2021/12/19 01:43:56;;;;;;;30.70;14.10;;;;;;;-0.03;100.00;96672.53;4977950;28;20187;-55
2021/12/19 01:46:22;;;;;;;28.77;13.17;;;;;;;-0.05;100.00;96672.03;4977624;28;20572;-61
2021/12/19 01:48:47;;;;;;;31.83;15.93;;;;;;;-0.09;100.00;96673.75;4978202;28;20191;-60
2021/12/19 01:51:12;;;;;;;33.13;13.70;;;;;;;-0.12;100.00;96679.72;4977696;28;20249;-61
2021/12/19 01:53:38;;;;;;;37.83;18.53;;;;;;;-0.05;100.00;96677.41;4977961;28;20208;-61
2021/12/19 01:56:05;;;;;;;32.73;15.13;;;;;;;-0.06;100.00;96683.88;4978367;28;20195;-61
2021/12/19 01:58:31;;;;;;;27.00;13.97;;;;;;;-0.05;100.00;96680.09;4977621;28;20265;-60
2021/12/19 02:00:57;;;;;;;29.83;12.80;;;;;;;-0.09;100.00;96673.75;4977903;28;20279;-61
2021/12/19 02:03:24;;;;;;;29.07;13.50;;;;;;;-0.11;100.00;96675.91;4977568;28;20554;-59
2021/12/19 02:05:49;;;;;;;28.57;13.60;;;;;;;-0.08;100.00;96675.31;4977801;28;20185;-61
2021/12/19 02:08:16;;;;;;;28.70;13.47;;;;;;;-0.13;100.00;96678.94;4977535;28;20184;-61
2021/12/19 02:10:42;;;;;;;26.37;13.03;;;;;;;-0.17;100.00;96677.16;4977660;28;20212;-61
2021/12/19 02:13:10;;;;;;;29.30;13.37;;;;;;;-0.15;100.00;96669.56;4977849;28;20222;-61
2021/12/19 02:15:37;;;;;;;26.70;13.30;;;;;;;-0.15;100.00;96674.94;4977420;28;20196;-61
2021/12/19 02:18:23;;;;;;;30.07;13.70;;;;;;;-0.16;100.00;96673.34;4977200;28;20181;-60
2021/12/19 02:20:56;;;;;;;31.33;14.07;;;;;;;-0.20;100.00;96673.19;4977959;28;20224;-60
2021/12/19 02:23:24;;;;;;;25.97;13.83;;;;;;;-0.17;100.00;96666.41;4980702;28;20185;-54
2021/12/19 02:25:50;;;;;;;30.30;14.10;;;;;;;-0.15;100.00;96674.94;4981074;28;20215;-54
2021/12/19 02:28:16;;;;;;;30.90;13.40;;;;;;;-0.14;100.00;96669.28;4981000;28;20550;-53
2021/12/19 02:30:42;;;;;;;29.40;14.00;;;;;;;-0.17;100.00;96666.41;4980927;28;20217;-53
2021/12/19 02:33:13;;;;;;;29.50;13.80;;;;;;;-0.12;100.00;96668.97;4980967;28;20254;-54
2021/12/19 02:35:41;;;;;;;28.53;13.83;;;;;;;-0.08;100.00;96664.56;4981036;28;20192;-53
2021/12/19 02:48:34;;;;;;;27.43;13.17;;;;;;;-0.06;100.00;96657.03;4998465;28;20203;-73
2021/12/19 02:51:01;;;;;;;29.77;14.07;;;;;;;-0.09;100.00;96663.00;4980430;28;20185;-74
2021/12/19 02:53:36;;;;;;;30.80;13.80;;;;;;;-0.14;100.00;96657.75;4980570;28;20246;-73
2021/12/19 02:56:04;;;;;;;28.90;13.90;;;;;;;-0.14;100.00;96655.09;4980884;28;20191;-61
2021/12/19 02:58:30;;;;;;;31.93;14.67;;;;;;;-0.11;100.00;96671.34;4980934;28;20264;-56
2021/12/19 03:00:59;;;;;;;28.67;13.17;;;;;;;-0.01;100.00;96664.94;4980092;28;20279;-59
2021/12/19 03:03:24;;;;;;;30.47;14.23;;;;;;;0.05;100.00;96666.44;4980599;28;20220;-60
2021/12/19 03:05:50;;;;;;;30.43;13.87;;;;;;;0.10;100.00;96658.25;4980149;28;20188;-60
2021/12/19 03:08:15;;;;;;;28.77;14.03;;;;;;;0.11;100.00;96657.16;4980781;28;20197;-59
2021/12/19 03:17:55;;;;;;;29.80;13.30;;;;;;;0.05;100.00;96661.06;4997833;28;20221;-60
2021/12/19 03:19:00;;;;;;;27.90;13.23;;;;;;;0.11;100.00;96643.75;4997999;28;20227;-59
2021/12/19 03:21:26;;;;;;;27.83;13.53;;;;;;;0.11;100.00;96657.16;4980205;28;20192;-59
2021/12/19 03:23:52;;;;;;;35.20;15.60;;;;;;;0.11;100.00;96657.16;4980057;28;20248;-59
2021/12/19 03:26:17;;;;;;;29.60;13.97;;;;;;;0.06;100.00;96649.22;4980356;28;20237;-59
2021/12/19 03:28:43;;;;;;;33.47;15.00;;;;;;;0.08;100.00;96642.44;4980200;28;20198;-59
2021/12/19 03:31:08;;;;;;;34.10;14.63;;;;;;;0.10;100.00;96631.41;4979729;28;20185;-59
2021/12/19 03:33:38;;;;;;;35.70;15.20;;;;;;;0.11;100.00;96624.16;4979708;28;20206;-53
2021/12/19 03:36:05;;;;;;;32.03;14.00;;;;;;;0.06;100.00;96616.22;4980151;28;20184;-72
2021/12/19 03:38:32;;;;;;;31.87;14.43;;;;;;;0.01;100.00;96601.03;4979711;28;20639;-74
2021/12/19 03:43:42;;;;;;;33.07;15.17;;;;;;;-0.07;100.00;96609.81;4997032;28;20238;-74
2021/12/19 03:46:08;;;;;;;34.27;14.27;;;;;;;-0.05;100.00;96604.94;4996867;28;20192;-73
2021/12/19 03:48:33;;;;;;;30.23;13.43;;;;;;;-0.12;100.00;96616.09;4979481;28;20200;-74
2021/12/19 03:50:59;;;;;;;28.30;13.13;;;;;;;-0.11;100.00;96627.59;4979527;28;20196;-73
2021/12/19 03:53:25;;;;;;;33.10;14.00;;;;;;;-0.16;100.00;96625.06;4979609;28;20247;-59
2021/12/19 03:55:51;;;;;;;29.77;13.27;;;;;;;-0.20;100.00;96621.41;4979212;28;20261;-68
2021/12/19 03:58:17;;;;;;;29.60;13.40;;;;;;;-0.23;100.00;96628.16;4979411;28;20184;-68
2021/12/19 04:00:44;;;;;;;29.77;14.00;;;;;;;-0.24;100.00;96623.09;4979090;28;20203;-68
2021/12/19 04:03:11;;;;;;;33.47;15.00;;;;;;;-0.26;100.00;96625.28;4979319;28;20261;-68
2021/12/19 04:05:42;;;;;;;31.73;14.57;;;;;;;-0.29;100.00;96623.25;4979204;28;20185;-68
2021/12/19 04:08:07;;;;;;;33.57;13.77;;;;;;;-0.30;100.00;96618.94;4979525;28;20189;-68
2021/12/19 04:10:32;;;;;;;32.00;14.53;;;;;;;-0.29;100.00;96615.19;4979151;28;20537;-53
2021/12/19 04:12:58;;;;;;;35.83;15.23;;;;;;;-0.35;100.00;96611.03;4979731;28;20228;-51
2021/12/19 04:15:24;;;;;;;39.70;15.80;;;;;;;-0.39;100.00;96610.06;4979314;28;20196;-53
2021/12/19 04:17:50;;;;;;;32.43;14.20;;;;;;;-0.41;100.00;96606.88;4979161;28;20199;-53
2021/12/19 04:20:18;;;;;;;32.30;15.07;;;;;;;-0.38;100.00;96607.06;4978933;28;20234;-54
2021/12/19 04:22:44;;;;;;;33.97;15.13;;;;;;;-0.33;100.00;96603.44;4979020;28;20239;-51
2021/12/19 04:25:10;;;;;;;34.00;14.33;;;;;;;-0.40;100.00;96587.78;4978843;28;20191;-54
2021/12/19 04:27:36;;;;;;;33.93;14.33;;;;;;;-0.46;100.00;96593.59;4978842;28;20192;-53
2021/12/19 04:30:04;;;;;;;33.33;14.10;;;;;;;-0.47;100.00;96586.63;4979130;28;20202;-59
2021/12/19 04:32:34;;;;;;;34.57;15.17;;;;;;;-0.45;100.00;96592.47;4978809;28;20208;-60
2021/12/19 04:35:00;;;;;;;33.17;14.97;;;;;;;-0.49;100.00;96583.44;4978968;28;20292;-60
2021/12/19 04:40:31;;;;;;;32.70;14.10;;;;;;;-0.47;100.00;96587.41;4995870;28;20188;-60
2021/12/19 04:54:19;;;;;;;37.90;15.93;;;;;;;-0.47;100.00;96576.69;4995643;28;20215;-64
2021/12/19 04:59:35;;;;;;;38.63;16.23;;;;;;;-0.32;100.00;96570.19;4995582;28;20196;-64
2021/12/19 05:15:25;;;;;;;34.20;15.20;;;;;;;-0.40;100.00;96554.81;4996129;28;20249;-54
2021/12/19 05:17:52;;;;;;;33.87;13.87;;;;;;;-0.38;100.00;96544.56;4978102;28;20221;-54
2021/12/19 05:20:22;;;;;;;33.37;15.13;;;;;;;-0.33;100.00;96549.78;4978638;28;20189;-53
2021/12/19 05:22:49;;;;;;;33.00;14.23;;;;;;;-0.33;100.00;96549.78;4978003;28;20196;-54
2021/12/19 05:25:17;;;;;;;34.20;15.43;;;;;;;-0.36;100.00;96539.69;4978516;28;20248;-74
2021/12/19 05:27:54;;;;;;;30.53;13.50;;;;;;;-0.39;100.00;96532.25;4978504;28;20187;-68
2021/12/19 05:30:21;;;;;;;31.37;14.73;;;;;;;-0.41;100.00;96537.13;4978084;28;20187;-68
2021/12/19 05:32:49;;;;;;;33.27;14.90;;;;;;;-0.36;100.00;96545.06;4977745;28;20231;-68
2021/12/19 05:35:21;;;;;;;30.57;14.60;;;;;;;-0.32;100.00;96551.41;4995202;28;20192;-68
2021/12/19 05:45:59;;;;;;;23.80;13.00;;;;;;;-0.28;100.00;96568.47;4995299;28;20250;-62
2021/12/19 05:48:24;;;;;;;25.47;12.53;;;;;;;-0.31;100.00;96569.06;4978127;28;20196;-62
2021/12/19 05:50:50;;;;;;;24.20;12.13;;;;;;;-0.33;100.00;96560.53;4977809;28;20199;-62
2021/12/19 05:53:15;;;;;;;22.83;12.33;;;;;;;-0.37;100.00;96570.28;4977735;28;20306;-63
2021/12/19 05:55:41;;;;;;;22.43;11.83;;;;;;;-0.38;100.00;96560.66;4977726;28;20192;-62
2021/12/19 05:58:07;;;;;;;23.20;12.07;;;;;;;-0.39;100.00;96559.09;4980633;28;20196;-62
2021/12/19 06:00:33;;;;;;;23.73;12.60;;;;;;;-0.37;100.00;96556.88;4981530;28;20219;-60
2021/12/19 06:02:59;;;;;;;23.70;12.43;;;;;;;-0.39;100.00;96545.66;4981421;28;20228;-63
2021/12/19 06:05:25;;;;;;;22.67;12.47;;;;;;;-0.41;100.00;96553.22;4982097;28;20207;-64
2021/12/19 06:07:50;;;;;;;21.90;12.83;;;;;;;-0.41;100.00;96535.25;4981683;28;20188;-64
2021/12/19 06:10:16;;;;;;;23.47;11.70;;;;;;;-0.44;100.00;96537.72;4981189;28;20200;-65
2021/12/19 06:12:42;;;;;;;22.13;12.33;;;;;;;-0.40;100.00;96547.53;4981707;28;20219;-64
2021/12/19 06:15:09;;;;;;;23.23;12.37;;;;;;;-0.42;100.00;96543.59;4981460;28;20199;-64
2021/12/19 06:17:36;;;;;;;23.17;13.23;;;;;;;-0.45;100.00;96547.69;4980963;28;20192;-65
2021/12/19 06:20:03;;;;;;;21.50;11.97;;;;;;;-0.44;100.00;96549.25;4981280;28;20238;-57
2021/12/19 06:22:28;;;;;;;22.67;12.17;;;;;;;-0.47;100.00;96557.91;4981212;28;20196;-61
2021/12/19 06:24:54;;;;;;;24.33;13.03;;;;;;;-0.48;100.00;96547.47;4981353;28;20184;-61
2021/12/19 06:27:19;;;;;;;23.83;12.87;;;;;;;-0.49;100.00;96546.72;4981110;28;20617;-61
2021/12/19 06:29:44;;;;;;;21.93;12.27;;;;;;;-0.48;100.00;96550.97;4981629;28;20204;-61
2021/12/19 06:32:10;;;;;;;21.53;12.57;;;;;;;-0.46;100.00;96547.97;4980908;28;20215;-61
2021/12/19 06:34:35;;;;;;;21.83;12.47;;;;;;;-0.46;100.00;96534.56;4981115;28;20192;-62
2021/12/19 06:37:01;;;;;;;21.80;12.30;;;;;;;-0.48;100.00;96537.56;4980917;28;20280;-49
2021/12/19 06:39:26;;;;;;;22.70;12.83;;;;;;;-0.53;100.00;96526.16;4981031;28;20601;-58
2021/12/19 06:41:52;;;;;;;21.47;12.73;;;;;;;-0.66;100.00;96524.31;4980882;28;20195;-68
2021/12/19 06:44:18;;;;;;;22.03;11.93;;;;;;;-0.67;100.00;96522.72;4998221;28;20271;-67
2021/12/19 06:46:44;;;;;;;23.77;12.20;;;;;;;-0.61;100.00;96526.91;4981025;28;20200;-66
2021/12/19 06:49:10;;;;;;;21.27;12.03;;;;;;;-0.55;100.00;96536.38;4981002;28;20634;-67
2021/12/19 06:51:35;;;;;;;21.33;12.07;;;;;;;-0.57;100.00;96538.59;4980691;28;20275;-67
2021/12/19 06:54:02;;;;;;;19.73;11.47;;;;;;;-0.61;100.00;96533.03;4980550;28;20204;-67
2021/12/19 06:56:28;;;;;;;22.50;12.07;;;;;;;-0.58;100.00;96523.59;4980705;28;20664;-60
2021/12/19 06:58:53;;;;;;;20.73;11.03;;;;;;;-0.62;100.00;96514.59;4980409;28;20582;-60
2021/12/19 07:01:19;;;;;;;19.50;11.23;;;;;;;-0.61;100.00;96518.84;4980489;28;20223;-60
2021/12/19 07:03:44;;;;;;;22.53;12.83;;;;;;;-0.66;100.00;96518.94;4980150;28;20193;-60
2021/12/19 07:06:10;;;;;;;20.47;12.27;;;;;;;-0.64;100.00;96516.78;4980447;28;20522;-60
2021/12/19 07:08:35;;;;;;;21.60;11.90;;;;;;;-0.59;100.00;96525.50;4979520;28;20191;-60
2021/12/19 07:11:01;;;;;;;22.53;11.90;;;;;;;-0.53;100.00;96518.13;4980006;28;20192;-60
2021/12/19 07:13:27;;;;;;;21.47;12.67;;;;;;;-0.55;100.00;96509.56;4980638;28;20214;-60
2021/12/19 07:15:56;;;;;;;20.63;12.50;;;;;;;-0.55;100.00;96505.00;4979964;28;20192;-61
2021/12/19 07:18:21;;;;;;;19.90;12.10;;;;;;;-0.56;100.00;96508.00;4979896;28;20189;-52
2021/12/19 07:20:47;;;;;;;21.40;11.37;;;;;;;-0.58;100.00;96510.19;4980664;28;20271;-54
2021/12/19 07:23:15;;;;;;;21.67;11.70;;;;;;;-0.53;100.00;96510.06;4980126;28;20271;-53
2021/12/19 07:25:41;;;;;;;20.50;13.07;;;;;;;-0.57;100.00;96501.06;4979805;28;20186;-50
2021/12/19 07:28:07;;;;;;;22.37;12.47;;;;;;;-0.58;100.00;96502.94;4979976;28;20275;-54
2021/12/19 07:30:36;;;;;;;18.80;11.53;;;;;;;-0.52;100.00;96506.28;4980252;28;20180;-51
2021/12/19 07:33:03;;;;;;;17.27;10.67;;;;;;;-0.52;100.00;96501.72;4979977;28;20307;-60
2021/12/19 07:35:30;;;;;;;21.13;11.63;;;;;;;-0.51;100.00;96497.16;4979678;28;20196;-52
2021/12/19 07:37:56;;;;;;;20.40;11.73;;;;;;;-0.49;100.00;96497.63;4979656;28;20585;-52
2021/12/19 07:40:23;;;;;;;19.17;11.53;;;;;;;-0.41;100.00;96507.63;4980291;28;20243;-53
2021/12/19 07:42:49;;;;;;;17.63;11.23;;;;;;;-0.33;100.00;96512.25;4979635;28;20192;-53
2021/12/19 07:45:15;;;;;;;20.47;11.87;;;;;;;-0.32;100.00;96497.75;4979486;28;20246;-53
2021/12/19 07:47:43;;;;;;;19.33;11.73;;;;;;;-0.30;100.00;96512.44;4979672;28;20192;-49
2021/12/19 07:50:11;;;;;;;20.40;11.73;;;;;;;-0.24;100.00;96510.41;4979624;28;20654;-55
2021/12/19 07:52:36;;;;;;;21.10;12.43;;;;;;;-0.18;100.00;96511.88;4979160;28;20216;-69
2021/12/19 07:55:03;;;;;;;19.57;12.37;;;;;;;-0.14;100.00;96508.25;4979687;28;20212;-53
2021/12/19 07:57:29;;;;;;;23.27;13.47;;;;;;;-0.10;100.00;96505.75;4979244;28;20223;-54
2021/12/19 07:59:54;;;;;;;20.77;12.30;;;;;;;-0.09;100.00;96500.09;4979578;28;20547;-53
2021/12/19 08:02:19;;;;;;;21.77;12.40;;;;;;;-0.01;100.00;96490.47;4979167;28;20240;-52
2021/12/19 08:04:45;;;;;;;19.80;11.73;;;;;;;0.15;100.00;96489.00;4979135;28;20236;-52
2021/12/19 08:07:12;;;;;;;21.23;12.57;;;;;;;0.30;100.00;96485.09;4979324;28;20244;-53
2021/12/19 08:09:56;;;;;;;19.87;12.13;;;;;;;0.43;100.00;96478.81;4979179;28;20189;-71
2021/12/19 08:12:21;;;;;;;19.57;12.40;;;;;;;0.36;100.00;96476.56;4979609;28;20210;-54
2021/12/19 08:14:46;;;;;;;20.40;12.17;;;;;;;0.43;100.00;96471.53;4996305;28;20575;-52
2021/12/19 08:17:12;;;;;;;20.33;12.40;;;;;;;0.80;100.00;96470.97;4979361;28;20556;-53
2021/12/19 08:19:38;;;;;;;18.93;12.23;;;;;;;1.62;100.00;96466.22;4978445;28;20347;-51
2021/12/19 08:22:03;;;;;;;20.23;12.10;;;;;;;2.47;100.00;96459.72;4978828;28;20284;-51
2021/12/19 08:24:28;;;;;;;17.17;11.53;;;;;;;3.35;100.00;96464.69;4978947;28;20192;-53
2021/12/19 08:26:54;;;;;;;18.17;12.03;;;;;;;4.22;100.00;96460.78;4979066;28;20191;-55
2021/12/19 08:29:19;;;;;;;24.43;15.90;;;;;;;4.76;100.00;96470.25;4979440;28;20542;-61
2021/12/19 08:31:45;;;;;;;17.03;12.33;;;;;;;5.43;100.00;96477.72;4978903;28;20230;-52
2021/12/19 08:34:10;;;;;;;16.20;11.53;;;;;;;5.76;100.00;96475.56;4979103;28;20211;-52
2021/12/19 08:36:36;;;;;;;19.23;12.60;;;;;;;5.33;100.00;96483.59;4995989;28;20188;-54
2021/12/19 08:39:02;;;;;;;16.37;11.80;;;;;;;5.86;100.00;96477.78;4978566;28;20190;-53
2021/12/19 08:41:28;;;;;;;17.43;12.57;;;;;;;5.82;100.00;96480.41;4978460;28;20532;-50
2021/12/19 08:43:54;;;;;;;16.43;12.10;;;;;;;5.71;100.00;96478.50;4978581;28;20192;-55
2021/12/19 08:46:20;;;;;;;21.00;14.13;;;;;;;6.18;100.00;96474.00;4978901;28;20279;-53
2021/12/19 08:48:45;;;;;;;18.77;12.33;;;;;;;6.60;100.00;96472.38;4978840;28;20213;-62
2021/12/19 08:51:11;;;;;;;16.37;12.37;;;;;;;6.86;100.00;96470.66;4978634;28;20636;-62
2021/12/19 08:53:36;;;;;;;15.83;11.80;;;;;;;7.02;100.00;96476.06;4978650;28;20213;-62
2021/12/19 08:56:02;;;;;;;35.53;22.57;;;;;;;6.83;100.00;96470.59;4978533;28;20185;-63
2021/12/19 08:58:29;;;;;;;19.63;14.30;;;;;;;6.57;100.00;96462.22;4978718;28;20191;-63
2021/12/19 09:00:58;;;;;;;21.83;15.00;;;;;;;6.23;100.00;96460.19;4978332;28;20187;-63
2021/12/19 09:03:24;;;;;;;15.73;12.30;;;;;;;6.66;100.00;96451.94;4979086;28;20275;-62
2021/12/19 09:05:50;;;;;;;15.27;12.40;;;;;;;6.92;100.00;96457.59;4978339;28;20228;-63
2021/12/19 09:08:15;;;;;;;18.87;12.90;;;;;;;6.80;100.00;96455.00;5017236;23;20227;-58
2021/12/19 09:10:42;;;;;;;14.93;12.13;;;;;;;6.97;100.00;96447.25;4978487;28;20286;-59
2021/12/19 09:13:07;;;;;;;17.10;12.87;;;;;;;6.97;100.00;96457.34;4978551;28;20303;-63
2021/12/19 09:15:33;;;;;;;15.53;12.37;;;;;;;7.14;100.00;96462.38;4978221;28;20230;-59
2021/12/19 09:17:58;;;;;;;21.77;15.43;;;;;;;7.65;100.00;96458.41;4978434;28;20191;-57
2021/12/19 09:20:24;;;;;;;14.37;11.40;;;;;;;7.54;100.00;96451.22;4978672;28;20235;-58
2021/12/19 09:22:49;;;;;;;17.53;13.20;;;;;;;7.63;100.00;96441.69;4978107;28;20256;-60
2021/12/19 09:25:14;;;;;;;14.57;12.03;;;;;;;7.76;100.00;96437.66;4995532;28;20236;-62
2021/12/19 09:27:40;;;;;;;16.97;12.60;;;;;;;7.79;100.00;96438.91;4978354;28;20186;-59
2021/12/19 09:30:05;;;;;;;17.13;12.90;;;;;;;7.75;100.00;96440.75;4978089;28;20228;-57
2021/12/19 09:32:31;;;;;;;17.17;13.00;;;;;;;7.91;100.00;96441.44;4977868;28;20230;-57
2021/12/19 09:34:56;;;;;;;17.47;12.47;;;;;;;8.00;100.00;96431.91;4994989;28;20192;-58
2021/12/19 09:37:22;;;;;;;15.90;12.93;;;;;;;7.97;100.00;96431.88;4977867;28;20185;-56
2021/12/19 09:39:50;;;;;;;17.40;13.97;;;;;;;8.04;100.00;96432.75;4978461;28;20214;-56
2021/12/19 09:42:19;;;;;;;18.70;14.40;;;;;;;7.91;100.00;96431.38;4995148;28;20189;-57
2021/12/19 09:44:44;;;;;;;17.90;12.77;;;;;;;7.96;100.00;96425.63;4977809;28;20201;-58
2021/12/19 09:47:09;;;;;;;15.47;11.90;;;;;;;7.74;100.00;96426.38;4977863;28;20187;-57
2021/12/19 09:49:35;;;;;;;17.13;11.77;;;;;;;7.45;100.00;96428.88;4977699;28;20197;-57
2021/12/19 09:52:05;;;;;;;13.47;11.13;;;;;;;7.34;100.00;96420.53;4977535;28;20211;-58
2021/12/19 09:54:31;;;;;;;21.23;12.80;;;;;;;7.42;100.00;96411.38;4978122;28;20194;-57
2021/12/19 09:56:57;;;;;;;15.47;13.10;;;;;;;7.42;100.00;96410.56;4977967;28;20268;-57
2021/12/19 09:59:23;;;;;;;16.30;11.47;;;;;;;7.21;100.00;96410.16;4977759;28;20230;-57
2021/12/19 10:01:50;;;;;;;14.53;11.90;;;;;;;7.46;100.00;96395.91;4977614;28;20248;-63
2021/12/19 10:04:28;;;;;;;15.23;12.00;;;;;;;7.28;100.00;96394.78;4977819;28;20185;-57
2021/12/19 10:07:15;;;;;;;15.13;12.03;;;;;;;7.26;100.00;96388.91;4977953;28;20184;-58
2021/12/19 10:09:59;;;;;;;19.13;12.63;;;;;;;7.71;100.00;96383.59;4978100;28;20202;-58
2021/12/19 10:15:02;;;;;;;15.70;12.13;;;;;;;7.93;100.00;96368.44;4994912;28;20201;-57
2021/12/19 10:17:27;;;;;;;18.13;14.83;;;;;;;7.26;100.00;96367.19;4977359;28;20197;-57
2021/12/19 10:19:55;;;;;;;20.20;14.90;;;;;;;7.10;100.00;96371.88;4977651;28;20189;-58
2021/12/19 10:22:40;;;;;;;16.07;13.00;;;;;;;7.27;100.00;96354.38;4977927;28;20196;-55
2021/12/19 10:25:37;;;;;;;16.73;12.80;;;;;;;7.28;100.00;96350.53;4977571;28;20191;-56
2021/12/19 10:28:09;;;;;;;15.87;12.10;;;;;;;7.61;100.00;96331.75;4972779;28;20204;-58
2021/12/19 10:30:46;;;;;;;16.80;11.90;;;;;;;7.60;100.00;96330.16;4977692;28;20191;-55
2021/12/19 10:33:17;;;;;;;16.90;11.93;;;;;;;7.55;100.00;96327.75;4977289;28;20212;-56
2021/12/19 10:35:47;;;;;;;14.07;10.67;;;;;;;6.96;100.00;96322.75;4977559;28;20188;-57
2021/12/19 10:38:34;;;;;;;17.27;12.23;;;;;;;6.33;100.00;96316.72;4977818;28;20251;-66
2021/12/19 10:41:09;;;;;;;18.67;12.27;;;;;;;5.94;100.00;96308.81;4977808;28;20191;-58
2021/12/19 10:43:42;;;;;;;15.17;11.43;;;;;;;5.80;100.00;96297.59;4979033;28;20198;-58
2021/12/19 10:46:07;;;;;;;29.63;19.77;;;;;;;5.49;100.00;96298.34;4980354;28;20199;-59
2021/12/19 10:48:37;;;;;;;16.57;12.97;;;;;;;5.26;100.00;96289.25;4980728;28;20190;-57
2021/12/19 10:51:02;;;;;;;17.07;12.57;;;;;;;5.10;100.00;96282.22;4980459;28;20203;-59
2021/12/19 10:53:30;;;;;;;18.83;13.60;;;;;;;4.78;100.00;96278.66;4980433;28;20221;-59
2021/12/19 10:55:56;;;;;;;17.20;11.87;;;;;;;4.56;100.00;96275.66;4997682;28;20199;-66
2021/12/19 10:58:27;;;;;;;15.77;11.27;;;;;;;4.26;100.00;96269.75;4980591;28;20242;-71
2021/12/19 11:01:04;;;;;;;17.87;10.90;;;;;;;4.24;100.00;96274.75;4980855;28;20267;-68
2021/12/19 11:03:53;;;;;;;16.93;11.47;;;;;;;4.18;100.00;96265.28;4980939;28;20196;-66
2021/12/19 11:06:20;;;;;;;15.47;10.30;;;;;;;4.09;100.00;96266.53;4980365;28;20196;-66
2021/12/19 11:08:46;;;;;;;14.90;10.20;;;;;;;4.05;100.00;96252.13;4980206;28;20225;-66
2021/12/19 11:11:13;;;;;;;15.27;11.03;;;;;;;3.92;100.00;96245.97;4979701;28;20247;-67
2021/12/19 11:13:38;;;;;;;16.10;10.30;;;;;;;3.97;100.00;96247.66;4980089;28;20626;-58
2021/12/19 11:16:04;;;;;;;16.23;10.47;;;;;;;3.96;100.00;96244.16;4980241;28;20188;-58
2021/12/19 11:18:30;;;;;;;14.30;10.37;;;;;;;3.98;100.00;96233.00;4980152;28;20191;-58
2021/12/19 11:20:56;;;;;;;16.20;10.27;;;;;;;4.01;100.00;96240.44;4980611;28;20179;-58
2021/12/19 11:23:21;;;;;;;15.30;9.90;;;;;;;4.03;100.00;96235.47;4980066;28;20191;-58
2021/12/19 11:25:47;;;;;;;13.37;9.47;;;;;;;4.11;100.00;96226.47;4979803;28;20204;-58
2021/12/19 11:28:13;;;;;;;13.07;9.00;;;;;;;4.13;100.00;96230.41;4979746;28;20284;-58
2021/12/19 11:30:39;;;;;;;15.33;9.43;;;;;;;4.19;100.00;96223.59;4979831;28;20196;-58
2021/12/19 11:33:22;;;;;;;12.50;8.60;;;;;;;4.23;100.00;96215.63;4979952;28;20204;-58
2021/12/19 11:35:50;;;;;;;12.17;8.87;;;;;;;4.27;100.00;96209.19;4980315;28;20191;-57
2021/12/19 11:38:21;;;;;;;12.87;8.90;;;;;;;4.31;100.00;96211.97;4979935;28;20230;-57
2021/12/19 11:40:47;;;;;;;19.50;12.37;;;;;;;4.35;100.00;96196.66;4979695;28;20223;-57
2021/12/19 11:43:13;;;;;;;12.10;8.83;;;;;;;4.34;100.00;96189.69;4979967;28;20192;-57
2021/12/19 11:45:44;;;;;;;12.70;8.87;;;;;;;4.40;100.00;96183.66;4979702;28;20222;-58
2021/12/19 11:48:21;;;;;;;11.67;8.60;;;;;;;4.40;100.00;96188.31;4980069;28;20195;-57
2021/12/19 11:50:56;;;;;;;14.47;8.57;;;;;;;4.43;100.00;96179.50;4979378;28;20199;-68
2021/12/19 11:53:39;;;;;;;13.97;9.03;;;;;;;4.41;100.00;96171.72;4979982;28;20260;-67
2021/12/19 11:56:08;;;;;;;10.43;7.70;;;;;;;4.40;100.00;96169.38;4978347;28;20192;-69
2021/12/19 11:58:48;;;;;;;11.37;7.83;;;;;;;4.41;100.00;96154.72;4979476;28;20195;-69
2021/12/19 12:01:15;;;;;;;10.70;7.63;;;;;;;4.49;100.00;96156.50;4979972;28;20188;-69
2021/12/19 12:03:59;;;;;;;11.90;7.90;;;;;;;4.44;100.00;96148.63;4979004;28;20222;-71
2021/12/19 12:06:31;;;;;;;12.47;8.43;;;;;;;4.49;100.00;96143.78;4979885;28;20188;-70
2021/12/19 12:09:03;;;;;;;10.80;8.17;;;;;;;4.54;100.00;96140.00;4979367;28;20198;-66
2021/12/19 12:11:30;;;;;;;11.97;8.27;;;;;;;4.57;100.00;96133.91;4979182;28;20246;-58
2021/12/19 12:14:27;;;;;;;12.50;8.40;;;;;;;4.64;100.00;96136.81;4978935;28;20298;-58
2021/12/19 12:17:00;;;;;;;11.23;7.37;;;;;;;4.71;100.00;96137.78;4979144;28;20214;-57
2021/12/19 12:19:48;;;;;;;10.33;7.23;;;;;;;4.71;100.00;96120.75;4978801;28;20195;-58
2021/12/19 12:25:08;;;;;;;12.13;7.80;;;;;;;4.80;100.00;96094.31;4995967;28;20195;-58